Time;durP1;ratioP1;P1;durP2;ratioP2;P2;SDS_P1;SDS_P2;PMS_P1;PMS_P2;Temp;Humidity;BMP_temperature;BMP_pressure;BME280_temperature;BME280_humidity;BME280_pressure;Samples;Min_cycle;Max_cycle;Signal;HPM_P1;HPM_P2
2023/05/25 00:00:14;;;;;;;5.90;2.40;;;11.60;99.90;;;;;;5082734;28;20043;-42
2023/05/25 00:02:45;;;;;;;6.68;3.05;;;11.60;99.90;;;;;;5081532;28;20111;-43
2023/05/25 00:05:11;;;;;;;6.35;2.50;;;11.50;99.90;;;;;;5081330;28;20537;-42
2023/05/25 00:07:37;;;;;;;3.63;2.70;;;11.50;99.90;;;;;;5079440;28;20020;-44
2023/05/25 00:10:04;;;;;;;6.85;2.88;;;11.50;99.90;;;;;;5080541;28;20034;-42
2023/05/25 00:12:30;;;;;;;3.75;2.13;;;11.50;99.90;;;;;;5079988;28;20032;-43
2023/05/25 00:14:56;;;;;;;5.53;2.72;;;11.50;99.90;;;;;;5076036;28;20373;-42
2023/05/25 00:17:22;;;;;;;6.43;3.53;;;11.50;99.90;;;;;;5081235;28;20135;-42
2023/05/25 00:19:49;;;;;;;7.05;2.90;;;11.40;99.90;;;;;;5081343;28;20028;-43
2023/05/25 00:22:17;;;;;;;5.93;3.30;;;11.40;99.90;;;;;;5081736;28;20437;-41
2023/05/25 00:24:42;;;;;;;5.45;3.20;;;11.30;99.90;;;;;;5076169;28;20036;-40
2023/05/25 00:27:08;;;;;;;5.40;2.88;;;11.30;99.90;;;;;;5077932;28;20036;-40
2023/05/25 00:29:34;;;;;;;6.60;2.80;;;11.30;99.90;;;;;;5069808;28;20039;-41
2023/05/25 00:32:00;;;;;;;5.03;2.65;;;11.20;99.90;;;;;;5076016;28;20032;-41
2023/05/25 00:34:26;;;;;;;4.32;2.88;;;11.20;99.90;;;;;;5072580;28;20023;-42
2023/05/25 00:36:53;;;;;;;5.32;2.65;;;11.20;99.90;;;;;;5080189;28;20561;-41
2023/05/25 00:39:19;;;;;;;4.13;2.60;;;11.20;99.90;;;;;;5080648;28;20066;-41
2023/05/25 00:41:46;;;;;;;4.50;3.08;;;11.20;99.90;;;;;;5080289;28;20027;-41
2023/05/25 00:44:13;;;;;;;5.47;2.90;;;11.20;99.90;;;;;;5080773;28;20020;-41
2023/05/25 00:46:50;;;;;;;7.43;2.80;;;11.10;99.90;;;;;;5080867;28;20032;-41
2023/05/25 00:49:20;;;;;;;5.30;2.58;;;11.10;99.90;;;;;;5079457;28;20028;-40
2023/05/25 00:51:46;;;;;;;4.97;2.70;;;11.00;99.90;;;;;;5081356;28;20273;-41
2023/05/25 00:54:16;;;;;;;5.45;2.78;;;11.10;99.90;;;;;;5081396;28;20025;-42
2023/05/25 00:56:54;;;;;;;6.18;2.70;;;11.00;99.90;;;;;;5071759;28;20043;-42
2023/05/25 00:59:29;;;;;;;5.97;3.05;;;11.00;99.90;;;;;;5074344;28;20117;-42
2023/05/25 01:01:58;;;;;;;6.15;2.60;;;11.00;99.90;;;;;;5067908;28;20024;-39
2023/05/25 01:04:27;;;;;;;4.65;2.50;;;11.00;99.90;;;;;;5080440;28;20165;-41
2023/05/25 01:06:56;;;;;;;5.95;2.92;;;11.00;99.90;;;;;;5080854;28;20024;-42
2023/05/25 01:09:25;;;;;;;6.20;3.20;;;10.90;99.90;;;;;;5076947;28;20040;-42
2023/05/25 01:11:52;;;;;;;7.40;3.38;;;10.90;99.90;;;;;;5062832;28;20035;-39
2023/05/25 01:14:20;;;;;;;3.28;2.75;;;10.80;99.90;;;;;;5079597;28;20040;-43
2023/05/25 01:16:50;;;;;;;4.97;2.75;;;10.90;99.90;;;;;;5079214;28;20028;-43
2023/05/25 01:19:17;;;;;;;6.43;2.60;;;10.90;99.90;;;;;;5079261;28;20062;-43
2023/05/25 01:22:08;;;;;;;4.72;2.60;;;10.80;99.90;;;;;;5076475;28;20626;-42
2023/05/25 01:24:43;;;;;;;5.53;2.58;;;10.80;99.90;;;;;;5072396;28;20077;-43
2023/05/25 01:27:23;;;;;;;8.40;3.38;;;10.80;99.90;;;;;;5064503;28;20868;-42
2023/05/25 01:29:49;;;;;;;4.20;2.80;;;10.90;99.90;;;;;;5080329;28;20194;-43
2023/05/25 01:32:16;;;;;;;4.85;2.78;;;10.80;99.90;;;;;;5063974;28;20050;-42
2023/05/25 01:34:43;;;;;;;4.95;2.60;;;10.80;99.90;;;;;;5080561;28;20027;-42
2023/05/25 01:37:12;;;;;;;3.88;2.30;;;10.80;99.90;;;;;;5081419;28;20730;-40
2023/05/25 01:39:39;;;;;;;6.93;3.05;;;10.80;99.90;;;;;;5078985;28;20048;-43
2023/05/25 01:42:05;;;;;;;5.60;2.83;;;10.80;99.90;;;;;;5081874;28;20107;-42
2023/05/25 01:44:30;;;;;;;7.50;2.75;;;10.80;99.90;;;;;;5080466;28;20016;-41
2023/05/25 01:47:14;;;;;;;5.32;2.92;;;10.80;99.90;;;;;;5081371;28;20475;-42
2023/05/25 01:49:56;;;;;;;4.28;2.65;;;10.80;99.90;;;;;;5080488;28;20120;-39
2023/05/25 01:52:26;;;;;;;5.78;2.60;;;10.80;99.90;;;;;;5078881;28;20020;-43
2023/05/25 01:54:57;;;;;;;6.13;3.00;;;10.70;99.90;;;;;;5080880;28;20116;-44
2023/05/25 01:57:23;;;;;;;5.95;2.70;;;10.70;99.90;;;;;;5059792;28;20185;-42
2023/05/25 01:59:51;;;;;;;4.75;2.65;;;10.70;99.90;;;;;;5080746;28;20040;-42
2023/05/25 02:02:19;;;;;;;6.28;3.17;;;10.70;99.90;;;;;;5085250;28;20516;-42
2023/05/25 02:04:45;;;;;;;6.53;3.30;;;10.60;99.90;;;;;;5084679;28;20071;-41
2023/05/25 02:07:10;;;;;;;5.70;3.22;;;10.60;99.90;;;;;;5082912;28;20753;-42
2023/05/25 02:09:39;;;;;;;6.53;2.40;;;10.60;99.90;;;;;;5079555;28;20132;-42
2023/05/25 02:12:07;;;;;;;5.53;2.90;;;10.60;99.90;;;;;;5077702;28;20016;-43
2023/05/25 02:14:33;;;;;;;4.55;3.00;;;10.60;99.90;;;;;;5081998;28;20077;-42
2023/05/25 02:17:01;;;;;;;4.20;2.70;;;10.60;99.90;;;;;;5084255;28;20036;-42
2023/05/25 02:19:28;;;;;;;6.00;3.08;;;10.50;99.90;;;;;;5083130;28;20036;-42
2023/05/25 02:21:53;;;;;;;7.60;3.15;;;10.50;99.90;;;;;;5080362;28;20494;-42
2023/05/25 02:24:19;;;;;;;7.65;3.13;;;10.50;99.90;;;;;;5074153;28;20032;-40
2023/05/25 02:26:44;;;;;;;7.07;3.70;;;10.50;99.90;;;;;;5082357;28;20024;-42
2023/05/25 02:29:10;;;;;;;6.72;3.13;;;10.50;99.90;;;;;;5081068;28;20028;-42
2023/05/25 02:31:36;;;;;;;5.65;2.95;;;10.50;99.90;;;;;;5079446;28;20044;-42
2023/05/25 02:34:02;;;;;;;6.63;3.30;;;10.50;99.90;;;;;;5070050;28;20024;-41
2023/05/25 02:36:27;;;;;;;6.45;2.88;;;10.50;99.90;;;;;;5082589;28;20109;-42
2023/05/25 02:38:56;;;;;;;5.95;3.33;;;10.40;99.90;;;;;;5077709;28;20020;-41
2023/05/25 02:41:23;;;;;;;6.13;3.58;;;10.40;99.90;;;;;;5070658;28;20036;-42
2023/05/25 02:43:48;;;;;;;4.63;2.97;;;10.40;99.90;;;;;;5067045;28;20099;-41
2023/05/25 02:46:14;;;;;;;5.90;2.88;;;10.40;99.90;;;;;;5082573;28;20032;-41
2023/05/25 02:48:40;;;;;;;6.15;3.08;;;10.30;99.90;;;;;;5081964;28;20509;-40
2023/05/25 02:51:06;;;;;;;8.18;3.30;;;10.30;99.90;;;;;;5077895;28;20037;-41
2023/05/25 02:53:32;;;;;;;4.03;2.63;;;10.30;99.90;;;;;;5076426;28;20031;-40
2023/05/25 02:55:57;;;;;;;6.78;3.80;;;10.20;99.90;;;;;;5082870;28;20052;-42
2023/05/25 02:58:29;;;;;;;7.45;3.30;;;10.20;99.90;;;;;;5072760;28;20113;-40
2023/05/25 03:00:55;;;;;;;5.80;3.22;;;10.20;99.90;;;;;;5077653;28;20135;-42
2023/05/25 03:03:21;;;;;;;5.80;3.10;;;10.10;99.90;;;;;;5082357;28;20077;-44
2023/05/25 03:05:47;;;;;;;2.95;2.50;;;10.10;99.90;;;;;;5082837;28;20503;-42
2023/05/25 03:08:13;;;;;;;6.30;2.80;;;10.10;99.90;;;;;;5082545;28;20020;-43
2023/05/25 03:10:38;;;;;;;5.70;3.03;;;10.10;99.90;;;;;;5077044;28;20055;-42
2023/05/25 03:13:04;;;;;;;6.85;3.25;;;10.10;99.90;;;;;;5081506;28;20024;-42
2023/05/25 03:15:29;;;;;;;4.43;2.75;;;10.10;99.90;;;;;;5065399;28;20039;-42
2023/05/25 03:17:59;;;;;;;3.22;2.35;;;10.10;99.90;;;;;;5077441;28;20033;-42
2023/05/25 03:20:28;;;;;;;6.88;2.72;;;10.10;99.90;;;;;;5082086;28;20035;-42
2023/05/25 03:22:54;;;;;;;8.52;3.50;;;10.10;99.90;;;;;;5082801;28;20051;-41
2023/05/25 03:25:23;;;;;;;6.95;3.15;;;10.00;99.90;;;;;;5081332;28;20531;-43
2023/05/25 03:27:52;;;;;;;7.00;3.13;;;10.00;99.90;;;;;;5081259;28;20093;-42
2023/05/25 03:30:19;;;;;;;5.72;2.95;;;10.00;99.90;;;;;;5081813;28;20067;-43
2023/05/25 03:32:45;;;;;;;6.18;3.35;;;10.00;99.90;;;;;;5079280;28;20036;-41
2023/05/25 03:35:10;;;;;;;5.57;3.03;;;9.90;99.90;;;;;;5081073;28;20035;-39
2023/05/25 03:37:36;;;;;;;8.35;3.65;;;10.00;99.90;;;;;;5081032;28;20557;-40
2023/05/25 03:40:01;;;;;;;6.95;4.00;;;9.90;99.90;;;;;;5084951;28;20483;-42
2023/05/25 03:42:27;;;;;;;7.38;3.50;;;9.90;99.90;;;;;;5095007;28;20584;-42
2023/05/25 03:44:53;;;;;;;6.60;3.50;;;10.00;99.90;;;;;;5081927;28;20035;-42
2023/05/25 03:47:18;;;;;;;5.35;3.50;;;9.90;99.90;;;;;;5081640;28;20046;-42
2023/05/25 03:49:44;;;;;;;6.32;3.55;;;10.00;99.90;;;;;;5082000;28;20042;-40
2023/05/25 03:52:09;;;;;;;5.15;3.15;;;10.00;99.90;;;;;;5082033;28;20068;-43
2023/05/25 03:54:35;;;;;;;4.72;2.78;;;10.00;99.90;;;;;;5081740;28;20109;-44
2023/05/25 03:57:02;;;;;;;6.13;2.70;;;10.00;99.90;;;;;;5082733;28;20039;-42
2023/05/25 03:59:28;;;;;;;6.50;3.33;;;10.00;99.90;;;;;;5081404;28;20056;-41
2023/05/25 04:01:53;;;;;;;7.55;2.95;;;10.10;99.90;;;;;;5082379;28;20182;-42
2023/05/25 04:04:19;;;;;;;8.40;4.00;;;10.10;99.90;;;;;;5082125;28;20028;-42
2023/05/25 04:06:47;;;;;;;9.85;3.75;;;10.10;99.90;;;;;;5081947;28;20020;-42
2023/05/25 04:09:13;;;;;;;8.20;3.60;;;10.10;99.90;;;;;;5078007;28;20028;-42
2023/05/25 04:11:39;;;;;;;6.68;2.83;;;10.10;99.90;;;;;;5081556;28;20024;-42
2023/05/25 04:14:04;;;;;;;6.05;3.08;;;10.10;99.90;;;;;;5082441;28;20076;-42
2023/05/25 04:16:30;;;;;;;9.43;3.47;;;10.10;99.90;;;;;;5079925;28;20024;-42
2023/05/25 04:18:56;;;;;;;9.63;3.30;;;10.20;99.90;;;;;;5081281;28;20076;-42
2023/05/25 04:21:21;;;;;;;9.65;3.80;;;10.20;99.90;;;;;;5080389;28;20024;-41
2023/05/25 04:23:47;;;;;;;6.20;3.10;;;10.20;99.90;;;;;;5076637;28;20024;-41
2023/05/25 04:26:14;;;;;;;8.27;3.72;;;10.20;99.90;;;;;;5080256;28;20032;-41
2023/05/25 04:28:40;;;;;;;4.47;3.03;;;10.20;99.90;;;;;;5077539;28;20032;-41
2023/05/25 04:31:06;;;;;;;5.25;3.00;;;10.30;99.90;;;;;;5079015;28;20050;-40
2023/05/25 04:33:33;;;;;;;7.53;3.58;;;10.30;99.90;;;;;;5079591;28;20157;-42
2023/05/25 04:35:59;;;;;;;8.90;4.10;;;10.30;99.90;;;;;;5081529;28;20032;-42
2023/05/25 04:38:25;;;;;;;7.35;3.53;;;10.30;99.90;;;;;;5069482;28;20033;-42
2023/05/25 04:40:52;;;;;;;5.18;3.03;;;10.30;99.90;;;;;;5079654;28;20081;-40
2023/05/25 04:43:19;;;;;;;8.38;3.50;;;10.30;99.90;;;;;;5078855;28;20028;-43
2023/05/25 04:45:45;;;;;;;7.38;3.58;;;10.30;99.90;;;;;;5076992;28;20046;-41
2023/05/25 04:48:11;;;;;;;6.80;3.17;;;10.30;99.90;;;;;;5068359;28;20466;-42
2023/05/25 04:50:39;;;;;;;8.73;3.53;;;10.40;99.90;;;;;;5078898;28;20040;-42
2023/05/25 04:53:05;;;;;;;7.97;3.30;;;10.40;99.90;;;;;;5081051;28;20027;-43
2023/05/25 04:55:31;;;;;;;7.30;3.53;;;10.40;99.90;;;;;;5075375;28;20025;-40
2023/05/25 04:57:57;;;;;;;6.78;3.67;;;10.40;99.90;;;;;;5078040;28;20032;-42
2023/05/25 05:00:23;;;;;;;5.05;3.50;;;10.40;99.90;;;;;;5079798;28;20086;-40
2023/05/25 05:02:50;;;;;;;6.78;3.40;;;10.40;99.90;;;;;;5073216;28;20046;-42
2023/05/25 05:05:16;;;;;;;9.63;3.97;;;10.40;99.90;;;;;;5075620;28;20043;-42
2023/05/25 05:07:41;;;;;;;5.88;3.35;;;10.40;99.90;;;;;;5075310;28;20036;-41
2023/05/25 05:10:07;;;;;;;5.65;3.70;;;10.50;99.90;;;;;;5079894;28;20047;-42
2023/05/25 05:12:33;;;;;;;5.07;3.05;;;10.40;99.90;;;;;;5080720;28;20028;-42
2023/05/25 05:14:58;;;;;;;11.50;4.05;;;10.40;99.90;;;;;;5080653;28;20024;-41
2023/05/25 05:17:26;;;;;;;9.55;4.22;;;10.50;99.90;;;;;;5078520;28;20105;-41
2023/05/25 05:19:52;;;;;;;9.43;3.97;;;10.50;99.90;;;;;;5079754;28;20103;-43
2023/05/25 05:22:18;;;;;;;7.40;4.07;;;10.60;99.90;;;;;;5079067;28;20546;-42
2023/05/25 05:24:46;;;;;;;7.85;3.97;;;10.60;99.90;;;;;;5079478;28;20060;-41
2023/05/25 05:27:15;;;;;;;8.13;4.05;;;10.60;99.90;;;;;;5078774;28;20028;-43
2023/05/25 05:29:41;;;;;;;7.70;4.35;;;10.70;99.90;;;;;;5079410;28;20032;-44
2023/05/25 05:32:07;;;;;;;8.20;4.50;;;10.70;99.90;;;;;;5079576;28;20028;-41
2023/05/25 05:34:33;;;;;;;7.72;4.13;;;10.80;99.90;;;;;;5081395;28;20028;-43
2023/05/25 05:37:01;;;;;;;10.35;4.93;;;10.80;99.90;;;;;;5085345;28;20024;-42
2023/05/25 05:39:27;;;;;;;7.63;3.75;;;10.80;99.90;;;;;;5091257;28;20110;-42
2023/05/25 05:41:55;;;;;;;10.57;4.50;;;10.90;99.90;;;;;;5094058;28;20020;-42
2023/05/25 05:44:21;;;;;;;8.93;4.28;;;10.90;99.90;;;;;;5084372;28;20046;-42
2023/05/25 05:46:47;;;;;;;9.98;4.78;;;10.90;99.90;;;;;;5084016;28;20395;-43
2023/05/25 05:49:13;;;;;;;9.73;4.03;;;11.00;99.90;;;;;;5084033;28;20415;-42
2023/05/25 05:51:38;;;;;;;8.93;4.28;;;11.00;99.90;;;;;;5081953;28;20058;-42
2023/05/25 05:54:05;;;;;;;8.60;4.22;;;11.00;99.90;;;;;;5081955;28;20024;-42
2023/05/25 05:56:30;;;;;;;7.13;3.83;;;11.10;99.90;;;;;;5082749;28;20048;-41
2023/05/25 05:58:56;;;;;;;7.80;3.63;;;11.10;99.90;;;;;;5082881;28;20079;-41
2023/05/25 06:01:22;;;;;;;8.20;4.70;;;11.10;99.90;;;;;;5083561;28;20031;-43
2023/05/25 06:03:48;;;;;;;9.43;4.35;;;11.20;99.90;;;;;;5083825;28;20053;-43
2023/05/25 06:06:14;;;;;;;7.10;4.18;;;11.20;99.90;;;;;;5083599;28;20140;-42
2023/05/25 06:08:41;;;;;;;6.78;4.18;;;11.30;99.90;;;;;;5080215;28;20115;-42
2023/05/25 06:11:06;;;;;;;10.27;4.63;;;11.40;99.90;;;;;;5070769;28;20169;-42
2023/05/25 06:13:34;;;;;;;8.20;4.20;;;11.40;99.90;;;;;;5079659;28;20415;-42
2023/05/25 06:15:59;;;;;;;6.57;3.50;;;11.50;99.90;;;;;;5081194;28;20028;-42
2023/05/25 06:18:25;;;;;;;7.88;4.57;;;11.50;99.90;;;;;;5081721;28;20034;-41
2023/05/25 06:20:51;;;;;;;11.75;4.75;;;11.60;99.90;;;;;;5081366;28;20044;-43
2023/05/25 06:23:17;;;;;;;11.25;4.53;;;11.70;99.90;;;;;;5083738;28;20028;-43
2023/05/25 06:25:43;;;;;;;8.63;4.43;;;11.70;99.90;;;;;;5084212;28;20032;-44
2023/05/25 06:28:09;;;;;;;7.68;4.25;;;11.80;99.90;;;;;;5083330;28;20039;-41
2023/05/25 06:30:35;;;;;;;7.22;4.25;;;11.90;99.90;;;;;;5082186;28;20043;-43
2023/05/25 06:33:03;;;;;;;8.15;3.85;;;11.90;99.90;;;;;;5078297;28;20070;-43
2023/05/25 06:35:29;;;;;;;9.48;5.13;;;12.00;99.90;;;;;;5081950;28;20039;-42
2023/05/25 06:37:55;;;;;;;9.20;5.07;;;12.10;99.90;;;;;;5082777;28;20020;-41
2023/05/25 06:40:21;;;;;;;7.82;3.78;;;12.20;99.90;;;;;;5081952;28;20456;-42
2023/05/25 06:42:46;;;;;;;7.57;3.88;;;12.30;99.90;;;;;;5077814;28;20028;-43
2023/05/25 06:45:12;;;;;;;6.53;3.92;;;12.40;99.90;;;;;;5082943;28;20806;-42
2023/05/25 06:47:37;;;;;;;8.38;4.68;;;12.50;99.90;;;;;;5077026;28;20031;-43
2023/05/25 06:50:03;;;;;;;8.68;4.00;;;12.70;99.90;;;;;;5080977;28;20085;-43
2023/05/25 06:52:29;;;;;;;8.07;4.15;;;12.90;99.90;;;;;;5082669;28;20593;-43
2023/05/25 06:54:55;;;;;;;8.13;3.70;;;13.00;99.90;;;;;;5081856;28;20028;-42
2023/05/25 06:57:24;;;;;;;6.35;4.00;;;13.20;99.90;;;;;;5074582;28;20066;-42
2023/05/25 06:59:50;;;;;;;5.68;3.28;;;13.30;99.90;;;;;;5082499;28;20020;-43
2023/05/25 07:02:17;;;;;;;7.00;3.50;;;13.50;99.90;;;;;;5082171;28;20089;-42
2023/05/25 07:04:43;;;;;;;8.10;3.53;;;13.60;99.90;;;;;;5080893;28;20044;-44
2023/05/25 07:07:08;;;;;;;10.13;3.75;;;13.70;99.90;;;;;;5083346;28;20028;-43
2023/05/25 07:09:34;;;;;;;4.80;2.95;;;13.90;99.90;;;;;;5079963;28;20575;-41
2023/05/25 07:12:00;;;;;;;7.30;3.60;;;13.90;99.90;;;;;;5081772;28;20490;-43
2023/05/25 07:14:28;;;;;;;7.57;3.65;;;14.00;99.90;;;;;;5072617;28;20024;-42
2023/05/25 07:16:57;;;;;;;8.48;3.78;;;14.10;99.90;;;;;;5074456;28;20021;-43
2023/05/25 07:19:22;;;;;;;7.00;3.30;;;14.10;99.90;;;;;;5070100;28;20471;-42
2023/05/25 07:21:48;;;;;;;5.28;3.17;;;14.20;99.90;;;;;;5082785;28;20028;-41
2023/05/25 07:24:13;;;;;;;6.93;3.67;;;14.30;99.90;;;;;;5063415;28;20104;-42
2023/05/25 07:26:39;;;;;;;7.45;3.70;;;14.40;99.90;;;;;;5082658;28;20056;-42
2023/05/25 07:29:04;;;;;;;6.38;3.10;;;14.40;99.90;;;;;;5083269;28;20659;-42
2023/05/25 07:31:30;;;;;;;5.70;3.22;;;14.50;99.90;;;;;;5080742;28;20775;-42
2023/05/25 07:33:55;;;;;;;7.05;2.80;;;14.60;99.90;;;;;;5083336;28;20035;-42
2023/05/25 07:36:23;;;;;;;5.70;2.83;;;14.70;99.90;;;;;;5082618;28;20077;-42
2023/05/25 07:38:49;;;;;;;6.10;2.30;;;14.80;99.90;;;;;;5084690;28;20031;-42
2023/05/25 07:41:14;;;;;;;7.00;2.60;;;14.80;99.90;;;;;;5081928;28;20016;-41
2023/05/25 07:43:43;;;;;;;8.80;2.72;;;14.90;99.90;;;;;;5082153;28;20016;-41
2023/05/25 07:46:08;;;;;;;7.78;2.70;;;14.90;99.90;;;;;;5086990;28;20038;-43
2023/05/25 07:48:34;;;;;;;6.43;2.70;;;14.90;99.90;;;;;;5086609;28;20016;-43
2023/05/25 07:51:00;;;;;;;6.80;2.67;;;14.90;99.90;;;;;;5083387;28;20064;-43
2023/05/25 07:53:25;;;;;;;4.93;2.90;;;15.00;99.90;;;;;;5081518;28;20097;-42
2023/05/25 07:55:51;;;;;;;8.75;3.00;;;15.10;99.90;;;;;;5082625;28;20043;-41
2023/05/25 07:58:16;;;;;;;5.20;2.65;;;15.10;99.90;;;;;;5081642;28;20089;-43
2023/05/25 08:00:43;;;;;;;6.63;2.83;;;15.20;99.90;;;;;;5082083;28;20032;-42
2023/05/25 08:03:09;;;;;;;8.80;2.90;;;15.20;99.90;;;;;;5082977;28;20020;-43
2023/05/25 08:05:35;;;;;;;7.30;2.65;;;15.30;99.90;;;;;;5081067;28;20111;-43
2023/05/25 08:08:03;;;;;;;9.73;3.70;;;15.30;99.90;;;;;;5081969;28;20028;-44
2023/05/25 08:10:32;;;;;;;7.20;2.58;;;15.40;99.90;;;;;;5080613;28;20055;-43
2023/05/25 08:12:58;;;;;;;3.80;2.80;;;15.50;99.90;;;;;;5081155;28;20031;-43
2023/05/25 08:15:25;;;;;;;8.90;2.95;;;15.50;99.90;;;;;;5081329;28;20024;-43
2023/05/25 08:17:51;;;;;;;8.07;2.75;;;15.60;99.90;;;;;;5081464;28;20047;-42
2023/05/25 08:20:16;;;;;;;6.03;2.70;;;15.60;99.90;;;;;;5079762;28;20119;-42
2023/05/25 08:22:45;;;;;;;8.02;3.13;;;15.60;99.90;;;;;;5080499;28;20063;-43
2023/05/25 08:25:16;;;;;;;10.77;3.13;;;15.60;99.90;;;;;;5079774;28;20507;-43
2023/05/25 08:27:45;;;;;;;7.40;2.77;;;15.60;99.90;;;;;;5079643;28;20053;-42
2023/05/25 08:30:11;;;;;;;5.80;2.70;;;15.60;99.90;;;;;;5080502;28;20051;-42
2023/05/25 08:32:37;;;;;;;6.82;2.70;;;15.70;99.90;;;;;;5081284;28;20285;-42
2023/05/25 08:35:03;;;;;;;4.78;2.65;;;15.70;99.90;;;;;;5080866;28;20038;-42
2023/05/25 08:37:30;;;;;;;7.70;3.15;;;15.70;99.90;;;;;;5082369;28;20091;-43
2023/05/25 08:39:56;;;;;;;6.82;2.70;;;15.80;99.90;;;;;;5082762;28;20425;-43
2023/05/25 08:42:22;;;;;;;5.82;2.53;;;15.70;99.90;;;;;;5081044;28;20020;-42
2023/05/25 08:44:48;;;;;;;8.13;2.80;;;15.80;99.90;;;;;;5083060;28;20020;-43
2023/05/25 08:47:15;;;;;;;7.30;2.78;;;15.90;99.90;;;;;;5082039;28;20024;-42
2023/05/25 08:49:43;;;;;;;7.50;3.15;;;15.90;99.90;;;;;;5079119;28;20036;-42
2023/05/25 08:52:23;;;;;;;3.40;2.13;;;16.00;99.90;;;;;;5082254;28;20059;-43
2023/05/25 08:54:52;;;;;;;7.32;2.70;;;16.20;99.90;;;;;;5081611;28;20068;-43
2023/05/25 08:57:18;;;;;;;7.05;2.97;;;16.30;99.90;;;;;;5081000;28;20127;-42
2023/05/25 09:00:10;;;;;;;7.75;3.42;;;16.40;99.90;;;;;;5082328;28;20042;-42
2023/05/25 09:02:43;;;;;;;8.05;2.70;;;16.50;99.90;;;;;;5080456;28;20058;-41
2023/05/25 09:05:09;;;;;;;5.53;3.00;;;16.50;99.90;;;;;;5081734;28;20031;-41
2023/05/25 09:07:35;;;;;;;9.20;3.15;;;16.60;99.90;;;;;;5080596;28;20052;-43
2023/05/25 09:10:02;;;;;;;9.05;3.90;;;16.60;99.90;;;;;;5080429;28;20063;-42
2023/05/25 09:12:29;;;;;;;12.25;4.03;;;16.60;99.90;;;;;;5081737;28;20020;-43
2023/05/25 09:14:56;;;;;;;10.85;3.25;;;16.60;99.90;;;;;;5079601;28;20032;-42
2023/05/25 09:17:22;;;;;;;8.10;3.17;;;16.60;99.90;;;;;;5079623;28;20047;-44
2023/05/25 09:19:49;;;;;;;9.23;3.35;;;16.60;99.90;;;;;;5080718;28;20304;-42
2023/05/25 09:22:14;;;;;;;6.22;3.10;;;16.40;99.90;;;;;;5080486;28;20036;-42
2023/05/25 09:24:42;;;;;;;7.55;3.20;;;16.30;99.90;;;;;;5079473;28;20042;-42
2023/05/25 09:27:10;;;;;;;9.38;3.05;;;16.20;99.90;;;;;;5081056;28;20020;-41
2023/05/25 09:29:36;;;;;;;7.15;3.50;;;16.10;99.90;;;;;;5079952;28;20535;-42
2023/05/25 09:32:07;;;;;;;4.55;2.60;;;16.10;99.90;;;;;;5080289;28;20038;-43
2023/05/25 09:34:33;;;;;;;6.38;2.90;;;16.10;99.90;;;;;;5080680;28;20028;-43
2023/05/25 09:37:00;;;;;;;8.52;3.70;;;16.30;99.90;;;;;;5079271;28;20023;-42
2023/05/25 09:39:26;;;;;;;5.43;2.85;;;16.50;99.90;;;;;;5080991;28;20936;-42
2023/05/25 09:41:51;;;;;;;7.53;2.70;;;16.60;99.90;;;;;;5081126;28;20097;-42
2023/05/25 09:44:17;;;;;;;7.20;2.85;;;16.70;99.90;;;;;;5081072;28;20020;-43
2023/05/25 09:46:43;;;;;;;6.35;2.90;;;16.90;99.90;;;;;;5080866;28;20020;-42
2023/05/25 09:49:10;;;;;;;8.95;3.03;;;16.90;99.90;;;;;;5080867;28;20459;-41
2023/05/25 09:51:36;;;;;;;7.97;2.95;;;17.00;99.90;;;;;;5079404;28;20100;-42
2023/05/25 09:54:02;;;;;;;6.97;3.17;;;17.00;99.90;;;;;;5081551;28;20031;-43
2023/05/25 09:56:30;;;;;;;6.07;2.80;;;17.10;99.90;;;;;;5080387;28;20068;-42
2023/05/25 09:58:56;;;;;;;5.25;2.63;;;17.10;99.90;;;;;;5080671;28;20035;-43
2023/05/25 10:01:22;;;;;;;5.70;3.30;;;17.10;99.90;;;;;;5081198;28;20024;-42
2023/05/25 10:03:49;;;;;;;5.32;2.42;;;17.10;99.90;;;;;;5081159;28;20035;-43
2023/05/25 10:06:16;;;;;;;7.25;2.78;;;17.20;99.90;;;;;;5080872;28;20027;-41
2023/05/25 10:08:44;;;;;;;6.00;2.60;;;17.20;99.90;;;;;;5080853;28;20458;-42
2023/05/25 10:11:13;;;;;;;7.20;2.80;;;17.10;99.90;;;;;;5080710;28;20028;-43
2023/05/25 10:13:39;;;;;;;6.30;2.58;;;17.10;99.90;;;;;;5080186;28;20024;-42
2023/05/25 10:16:11;;;;;;;4.93;2.80;;;17.10;99.90;;;;;;5080949;28;20490;-43
2023/05/25 10:18:42;;;;;;;4.97;2.60;;;17.20;99.90;;;;;;5081261;28;20074;-41
2023/05/25 10:21:09;;;;;;;7.20;2.65;;;17.30;99.90;;;;;;5082637;28;20027;-43
2023/05/25 10:23:43;;;;;;;4.13;1.83;;;17.50;99.90;;;;;;5083258;28;20079;-43
2023/05/25 10:26:10;;;;;;;3.70;2.25;;;17.70;99.90;;;;;;5082575;28;20379;-42
2023/05/25 10:28:38;;;;;;;4.25;2.15;;;17.80;99.90;;;;;;5083136;28;20028;-43
2023/05/25 10:31:04;;;;;;;3.30;2.00;;;18.00;99.90;;;;;;5084232;28;20027;-43
2023/05/25 10:33:39;;;;;;;7.30;2.90;;;18.10;99.90;;;;;;5082277;28;20020;-41
2023/05/25 10:36:05;;;;;;;6.43;2.35;;;18.20;99.90;;;;;;5083893;28;20026;-43
2023/05/25 10:38:32;;;;;;;5.30;2.58;;;18.30;99.90;;;;;;5083850;28;20032;-42
2023/05/25 10:41:03;;;;;;;5.18;2.28;;;18.40;99.60;;;;;;5083364;28;20024;-43
2023/05/25 10:43:29;;;;;;;5.13;2.70;;;18.40;99.30;;;;;;5084211;28;20128;-43
2023/05/25 10:45:55;;;;;;;4.85;2.90;;;18.30;99.10;;;;;;5083672;28;20028;-42
2023/05/25 10:48:21;;;;;;;6.18;2.70;;;18.20;98.90;;;;;;5083310;28;20016;-43
2023/05/25 10:50:52;;;;;;;6.78;2.60;;;18.10;98.80;;;;;;5082987;28;20390;-42
2023/05/25 10:53:20;;;;;;;4.65;2.55;;;18.00;99.10;;;;;;5083981;28;20044;-43
2023/05/25 10:55:51;;;;;;;4.57;2.63;;;18.00;99.00;;;;;;5082834;28;20024;-42
2023/05/25 10:58:18;;;;;;;5.97;2.47;;;18.00;98.80;;;;;;5083629;28;20035;-43
2023/05/25 11:01:02;;;;;;;5.32;2.30;;;18.00;98.80;;;;;;5084266;28;20107;-43
2023/05/25 11:03:42;;;;;;;5.70;2.03;;;18.00;99.00;;;;;;5082379;28;20027;-43
2023/05/25 11:06:10;;;;;;;4.10;2.10;;;18.00;98.80;;;;;;5084406;28;20028;-43
2023/05/25 11:08:51;;;;;;;5.15;2.50;;;18.10;98.90;;;;;;5082825;28;20036;-44
2023/05/25 11:11:21;;;;;;;4.40;2.50;;;18.10;98.80;;;;;;5084215;28;20065;-43
2023/05/25 11:13:48;;;;;;;4.72;2.20;;;18.10;98.70;;;;;;5083032;28;20020;-42
2023/05/25 11:16:20;;;;;;;5.50;2.40;;;18.10;98.70;;;;;;5083924;28;20361;-42
2023/05/25 11:18:53;;;;;;;;;;;18.20;98.80;;;;;;5082624;28;20036;-42
2023/05/25 11:21:29;;;;;;;3.35;2.05;;;18.20;98.80;;;;;;5084144;28;20834;-43
2023/05/25 11:24:03;;;;;;;6.00;2.60;;;18.30;98.60;;;;;;5083047;28;20046;-43
2023/05/25 11:26:31;;;;;;;7.45;2.72;;;18.40;98.20;;;;;;5063582;28;20028;-43
2023/05/25 11:28:58;;;;;;;4.50;2.35;;;18.40;98.00;;;;;;5079209;28;20134;-42
2023/05/25 11:31:28;;;;;;;3.47;2.10;;;18.60;97.90;;;;;;5081312;28;20498;-43
2023/05/25 11:33:59;;;;;;;8.75;2.88;;;18.60;97.30;;;;;;5081764;28;20038;-43
2023/05/25 11:36:30;;;;;;;5.82;2.33;;;18.60;96.70;;;;;;5081136;28;20031;-43
2023/05/25 11:38:56;;;;;;;5.47;2.65;;;18.60;96.70;;;;;;5082541;28;20016;-42
2023/05/25 11:41:22;;;;;;;3.85;2.47;;;18.60;96.60;;;;;;5081969;28;20055;-43
2023/05/25 11:43:52;;;;;;;3.78;2.42;;;18.70;96.60;;;;;;5082557;28;20501;-42
2023/05/25 11:46:18;;;;;;;5.65;2.30;;;18.70;96.70;;;;;;5082425;28;20078;-42
2023/05/25 11:48:53;;;;;;;4.32;2.28;;;18.70;96.50;;;;;;5082238;28;20028;-42
2023/05/25 11:51:24;;;;;;;6.15;2.50;;;18.70;96.00;;;;;;5082185;28;20147;-43
2023/05/25 11:53:50;;;;;;;5.60;2.63;;;18.70;95.60;;;;;;5081854;28;20044;-43
2023/05/25 11:56:17;;;;;;;6.75;2.50;;;18.80;95.40;;;;;;5083028;28;20052;-43
2023/05/25 11:58:44;;;;;;;4.68;2.67;;;19.00;95.30;;;;;;5082022;28;20097;-43
2023/05/25 12:01:17;;;;;;;5.50;3.00;;;19.10;94.50;;;;;;5082996;28;20020;-41
2023/05/25 12:03:48;;;;;;;5.93;2.70;;;19.10;94.40;;;;;;5083488;28;20031;-43
2023/05/25 12:06:28;;;;;;;4.97;2.20;;;19.10;94.40;;;;;;5082244;28;20499;-42
2023/05/25 12:08:54;;;;;;;6.22;2.30;;;19.10;94.70;;;;;;5083524;28;20031;-43
2023/05/25 12:11:56;;;;;;;3.97;2.30;;;19.20;94.80;;;;;;5082373;28;20035;-43
2023/05/25 12:14:22;;;;;;;5.93;2.35;;;19.40;94.90;;;;;;5050180;28;20589;-42
2023/05/25 12:16:48;;;;;;;4.18;2.70;;;19.50;94.60;;;;;;5082476;28;20020;-43
2023/05/25 12:19:15;;;;;;;7.85;3.10;;;19.50;94.10;;;;;;5082017;28;20023;-43
2023/05/25 12:21:41;;;;;;;5.75;2.47;;;19.50;93.60;;;;;;5082118;28;20030;-43
2023/05/25 12:24:08;;;;;;;5.25;2.67;;;19.40;93.60;;;;;;5082966;28;20146;-42
2023/05/25 12:26:45;;;;;;;6.22;2.35;;;19.30;93.60;;;;;;5081434;28;20015;-42
2023/05/25 12:29:11;;;;;;;8.07;2.70;;;19.20;93.80;;;;;;5082457;28;20032;-42
2023/05/25 12:31:40;;;;;;;5.05;2.15;;;19.20;93.70;;;;;;5081631;28;20887;-42
2023/05/25 12:34:18;;;;;;;4.80;2.45;;;19.10;93.90;;;;;;5082205;28;20031;-41
2023/05/25 12:36:51;;;;;;;8.85;3.35;;;19.20;94.00;;;;;;5081677;28;20031;-42
2023/05/25 12:39:37;;;;;;;8.52;3.10;;;19.40;93.70;;;;;;5081785;28;20178;-41
2023/05/25 12:42:03;;;;;;;7.78;3.10;;;19.40;93.60;;;;;;5081248;28;20029;-40
2023/05/25 12:44:30;;;;;;;4.57;2.78;;;19.30;93.10;;;;;;5081004;28;20016;-34
2023/05/25 12:47:18;;;;;;;5.75;2.88;;;19.30;93.40;;;;;;5081214;28;20032;-34
2023/05/25 12:49:45;;;;;;;4.97;2.47;;;19.20;93.50;;;;;;5081704;28;20077;-33